Observations
| Time | Sensor | AQI | SAQ | Temp °C | Hum % | Pres Pa | CO μg/m³ | H₂S μg/m³ | NO μg/m³ | NO₂ μg/m³ | O₃ μg/m³ | SO₂ μg/m³ | CO₂e PPM | VOC PPM | PM1 μg/m³ | PM2.5 μg/m³ | PM4 μg/m³ | PM10 μg/m³ | TPS µm |
|---|---|---|---|---|---|---|---|---|---|---|---|---|---|---|---|---|---|---|---|
| Wednesday 12 August 2026 | |||||||||||||||||||
| 09:06 | Trim Market St | 2 | 21.2 | 73 | 28,266 | 0.3 | 0 | 1.27 | 27.29 | 60.97 | 0 | 4.99 | 5.81 | 8.75 | |||||
| 09:05 | Trim Patrick St | 2 | 21.6 | 73 | 38,460 | 0.13 | 4.87 | 1.6 | 35.54 | 30.55 | 1.8 | 8.86 | 12.85 | 14.14 | |||||
| 09:04 | Trim Patrick St | 2 | 21.5 | 73 | 38,460 | 0.11 | 6.25 | 1.65 | 24.88 | 36.96 | 1.36 | 8 | 12.86 | 14.15 | |||||
| 09:03 | Trim Patrick St | 2 | 21.5 | 73 | 38,460 | 0.12 | 9.66 | 1.53 | 49.46 | 24.54 | 1.1 | 9.71 | 13.58 | 14.93 | |||||
| 09:02 | Trim Market St | 2 | 21.1 | 73 | 26,566 | 0.23 | 0 | 1.57 | 23.79 | 53.07 | 0 | 4.28 | 5.31 | 8.14 | |||||
| 09:02 | Trim Patrick St | 2 | 21.4 | 73 | 38,460 | 0.12 | 9.55 | 1.45 | 53.49 | 21.95 | 0.59 | 9.71 | 12.14 | 13.36 | |||||
| 09:01 | Trim Market St | 2 | 21.1 | 73 | 25,580 | 0.22 | 0 | 1.57 | 22.56 | 58.64 | 0 | 3.56 | 5.3 | 8.74 | |||||
| 09:01 | Trim Patrick St | 2 | 21.3 | 73 | 38,460 | 0.14 | 7.07 | 1.51 | 34.31 | 39.38 | 1.33 | 7.14 | 11.42 | 12.56 | |||||
| 09:00 | Trim Market St | 2 | 21 | 74 | 24,594 | 0.23 | 0 | 1.53 | 24.93 | 54.46 | 0 | 4.99 | 5.78 | 8.74 | |||||
| 09:00 | Trim Patrick St | 2 | 21.3 | 73 | 38,460 | 0.19 | 10.13 | 1.46 | 42.43 | 31.31 | 1.94 | 8 | 13.55 | 14.9 | |||||
| 08:59 | Trim Market St | 2 | 21 | 74 | 23,605 | 0.22 | 0 | 1.59 | 21.87 | 58.41 | 0 | 4.99 | 5.77 | 9.35 | |||||
| 08:59 | Trim Patrick St | 2 | 21.3 | 73 | 38,460 | 0.09 | 10.32 | 1.38 | 35.46 | 43.36 | 1.33 | 8.86 | 14.28 | 15.71 | |||||
| 08:58 | Trim Market St | 2 | 20.9 | 74 | 22,758 | 0.21 | 0 | 1.64 | 32.27 | 55.14 | 0 | 4.28 | 6.25 | 10.56 | |||||
| 08:57 | Trim Market St | 2 | 20.8 | 74 | 22,359 | 0.21 | 0 | 1.74 | 35.69 | 54.19 | 0 | 4.99 | 5.77 | 8.74 | |||||
| 08:57 | Trim Patrick St | 2 | 21.1 | 73 | 38,460 | 0.1 | 9.69 | 1.45 | 42.88 | 35.87 | 1.21 | 8 | 12.82 | 14.1 | |||||
| 08:56 | Trim Market St | 2 | 20.8 | 74 | 22,352 | 0.23 | 0 | 1.76 | 37.65 | 52.99 | 0 | 4.99 | 6.73 | 10.56 | |||||
| 08:56 | Trim Patrick St | 2 | 21.1 | 74 | 38,460 | 0.08 | 6.61 | 1.5 | 27.14 | 43.54 | 1.64 | 8 | 12.06 | 13.27 | |||||
| 08:55 | Trim Market St | 2 | 20.7 | 74 | 22,999 | 0.22 | 5.68 | 1.73 | 65.83 | 29.4 | 0 | 4.99 | 7.22 | 11.77 | |||||
| 08:55 | Trim Patrick St | 2 | 21 | 74 | 38,460 | 0.08 | 5.16 | 1.4 | 22.74 | 40.66 | 1.55 | 8.86 | 13.49 | 14.84 | |||||
| 08:54 | Trim Market St | 2 | 20.7 | 74 | 24,063 | 0.23 | 3.71 | 1.74 | 78.87 | 5.24 | 0 | 7.13 | 9.14 | 14.8 | |||||